Time;durP1;ratioP1;P1;durP2;ratioP2;P2;SDS_P1;SDS_P2;PMS_P1;PMS_P2;Temp;Humidity;BMP_temperature;BMP_pressure;BME280_temperature;BME280_humidity;BME280_pressure;Samples;Min_cycle;Max_cycle;Signal;HPM_P1;HPM_P2
2022/06/10 00:01:16;;;;;;;;;;;20.20;70.20;;;;;;5093106;28;1675;-69
2022/06/10 00:03:41;;;;;;;;;;;20.20;70.20;;;;;;5075115;28;1287;-69
2022/06/10 00:06:07;;;;;;;;;;;20.20;70.20;;;;;;5075416;28;1898;-69
2022/06/10 00:08:33;;;;;;;;;;;20.20;70.20;;;;;;5088269;28;1293;-69
2022/06/10 00:10:59;;;;;;;;;;;20.20;70.20;;;;;;5055010;28;1087;-69
2022/06/10 00:13:25;;;;;;;;;;;20.20;70.20;;;;;;5054900;28;1376;-69
2022/06/10 00:15:53;;;;;;;;;;;20.20;70.10;;;;;;5073536;28;1282;-69
2022/06/10 00:18:18;;;;;;;;;;;20.20;70.20;;;;;;5051570;28;1406;-69
2022/06/10 00:20:44;;;;;;;;;;;20.20;70.20;;;;;;5071448;28;1324;-69
2022/06/10 00:23:09;;;;;;;;;;;20.20;70.20;;;;;;5071266;28;1300;-69
2022/06/10 00:25:36;;;;;;;;;;;20.20;70.20;;;;;;5054431;28;1906;-69
2022/06/10 00:28:02;;;;;;;;;;;20.20;70.20;;;;;;5071305;28;1282;-69
2022/06/10 00:30:28;;;;;;;;;;;20.20;70.20;;;;;;5054205;28;1314;-69
2022/06/10 00:32:54;;;;;;;;;;;20.20;70.20;;;;;;5071164;28;1327;-69
2022/06/10 00:35:20;;;;;;;;;;;20.20;70.20;;;;;;5071498;28;1579;-69
2022/06/10 00:37:45;;;;;;;;;;;20.20;70.20;;;;;;5054083;28;1364;-69
2022/06/10 00:40:15;;;;;;;;;;;20.20;70.20;;;;;;5037282;28;2150;-69
2022/06/10 00:42:41;;;;;;;;;;;20.20;70.20;;;;;;5054000;28;1279;-69
2022/06/10 00:45:26;;;;;;;;;;;20.20;70.20;;;;;;5083866;28;1260;-69
2022/06/10 00:47:52;;;;;;;;;;;20.20;70.20;;;;;;5092162;28;1898;-69
2022/06/10 00:50:28;;;;;;;;;;;20.20;70.20;;;;;;5074024;28;1326;-69
2022/06/10 00:52:55;;;;;;;;;;;20.20;70.20;;;;;;5059849;28;1280;-69
2022/06/10 00:55:28;;;;;;;;;;;20.20;70.20;;;;;;5054174;28;1305;-69
2022/06/10 00:57:58;;;;;;;;;;;20.20;70.20;;;;;;5055194;28;1428;-69
2022/06/10 01:00:23;;;;;;;;;;;20.20;70.20;;;;;;5054184;28;1077;-69
2022/06/10 01:02:49;;;;;;;;;;;20.20;70.20;;;;;;5070883;28;1218;-69
2022/06/10 01:05:18;;;;;;;;;;;20.20;70.20;;;;;;5073209;28;1055;-69
2022/06/10 01:07:44;;;;;;;;;;;20.20;70.20;;;;;;5075941;28;1890;-69
2022/06/10 01:10:11;;;;;;;;;;;20.20;70.20;;;;;;5081881;28;1102;-69
2022/06/10 01:12:43;;;;;;;;;;;20.20;70.20;;;;;;5078737;28;1082;-69
2022/06/10 01:15:29;;;;;;;;;;;20.20;70.20;;;;;;5075956;28;1299;-69
2022/06/10 01:18:15;;;;;;;;;;;20.20;70.20;;;;;;5029886;28;1303;-69
2022/06/10 01:20:43;;;;;;;;;;;20.20;70.20;;;;;;5034200;28;1280;-69
2022/06/10 01:23:28;;;;;;;;;;;20.20;70.20;;;;;;5072911;28;1243;-69
2022/06/10 01:26:00;;;;;;;;;;;20.20;70.20;;;;;;5075499;28;1965;-69
2022/06/10 01:28:25;;;;;;;;;;;20.20;70.20;;;;;;5067257;28;1685;-69
2022/06/10 01:30:51;;;;;;;;;;;20.20;70.20;;;;;;5074549;28;1122;-69
2022/06/10 01:33:17;;;;;;;;;;;20.20;70.20;;;;;;5062880;28;1459;-69
2022/06/10 01:36:02;;;;;;;;;;;20.20;70.20;;;;;;5075465;28;1623;-69
2022/06/10 01:38:40;;;;;;;;;;;20.20;70.20;;;;;;5057972;28;1296;-69
2022/06/10 01:41:09;;;;;;;;;;;20.20;70.20;;;;;;5070971;28;1878;-69
2022/06/10 01:43:45;;;;;;;;;;;20.20;70.20;;;;;;5069357;28;1091;-69
2022/06/10 01:46:20;;;;;;;;;;;20.20;70.20;;;;;;5050952;28;1901;-69
2022/06/10 01:48:51;;;;;;;;;;;20.20;70.20;;;;;;5032590;28;1385;-68
2022/06/10 01:51:27;;;;;;;;;;;20.20;70.20;;;;;;5079026;28;1096;-69
2022/06/10 01:53:57;;;;;;;;;;;20.20;70.20;;;;;;5060330;28;1462;-69
2022/06/10 01:56:25;;;;;;;;;;;20.20;70.20;;;;;;5077476;28;925;-69
2022/06/10 01:58:52;;;;;;;;;;;20.20;70.20;;;;;;5077536;28;1325;-69
2022/06/10 02:01:22;;;;;;;;;;;20.10;70.10;;;;;;5077497;28;1253;-69
2022/06/10 02:03:53;;;;;;;;;;;20.20;70.20;;;;;;5064938;28;1318;-69
2022/06/10 02:06:26;;;;;;;;;;;20.20;70.20;;;;;;5068662;28;1933;-69
2022/06/10 02:08:57;;;;;;;;;;;20.10;70.10;;;;;;5045536;28;1344;-69
2022/06/10 02:11:23;;;;;;;;;;;20.20;70.20;;;;;;5057121;28;1309;-69
2022/06/10 02:13:53;;;;;;;;;;;20.20;70.20;;;;;;5057500;28;1348;-69
2022/06/10 02:16:20;;;;;;;;;;;20.20;70.20;;;;;;5056881;28;1326;-69
2022/06/10 02:18:50;;;;;;;;;;;20.20;70.20;;;;;;5053193;28;1267;-69
2022/06/10 02:21:21;;;;;;;;;;;20.20;70.20;;;;;;5085746;28;1268;-69
2022/06/10 02:23:50;;;;;;;;;;;20.20;70.20;;;;;;5062808;28;1261;-69
2022/06/10 02:26:16;;;;;;;;;;;20.20;70.20;;;;;;5062033;28;2444;-69
2022/06/10 02:28:45;;;;;;;;;;;20.20;70.20;;;;;;5063129;28;1385;-69
2022/06/10 02:31:32;;;;;;;;;;;20.20;70.20;;;;;;5065585;28;1271;-69
2022/06/10 02:33:58;;;;;;;;;;;20.20;70.20;;;;;;5067367;28;1375;-69
2022/06/10 02:36:26;;;;;;;;;;;20.20;70.20;;;;;;5073347;28;1878;-69
2022/06/10 02:38:58;;;;;;;;;;;20.20;70.20;;;;;;5058303;28;1928;-68
2022/06/10 02:41:35;;;;;;;;;;;20.20;70.20;;;;;;5065545;28;1425;-68
2022/06/10 02:44:06;;;;;;;;;;;20.20;70.20;;;;;;5088589;28;1220;-69
2022/06/10 02:46:54;;;;;;;;;;;20.20;70.20;;;;;;5084654;28;1967;-70
2022/06/10 02:49:20;;;;;;;;;;;20.20;70.20;;;;;;5066503;28;1282;-69
2022/06/10 02:51:46;;;;;;;;;;;20.10;70.10;;;;;;5066819;28;1203;-69
2022/06/10 02:54:16;;;;;;;;;;;20.20;70.20;;;;;;5066623;28;1286;-72
2022/06/10 02:56:42;;;;;;;;;;;20.10;70.20;;;;;;5065323;28;1271;-66
2022/06/10 03:01:58;;;;;;;;;;;20.20;70.20;;;;;;5068409;28;1106;-67
2022/06/10 03:04:29;;;;;;;;;;;20.20;70.30;;;;;;5083874;28;1329;-67
2022/06/10 03:06:59;;;;;;;;;;;20.10;70.20;;;;;;5082911;28;1957;-69
2022/06/10 03:09:31;;;;;;;;;;;20.10;70.20;;;;;;5079392;28;1212;-70
2022/06/10 03:12:15;;;;;;;;;;;20.20;70.20;;;;;;5082004;28;1424;-72
2022/06/10 03:14:44;;;;;;;;;;;20.20;70.20;;;;;;5078338;28;1250;-68
2022/06/10 03:17:18;;;;;;;;;;;20.10;70.20;;;;;;5075815;28;1346;-68
2022/06/10 03:19:52;;;;;;;;;;;20.20;70.20;;;;;;5078380;28;1435;-71
2022/06/10 03:22:21;;;;;;;;;;;20.10;70.20;;;;;;5055958;28;1279;-71
2022/06/10 03:25:02;;;;;;;;;;;20.20;70.20;;;;;;5073791;28;1328;-69
2022/06/10 03:27:27;;;;;;;;;;;20.10;70.20;;;;;;5073665;28;1914;-67
2022/06/10 03:30:00;;;;;;;;;;;20.20;70.20;;;;;;5072303;28;1429;-65
2022/06/10 03:32:31;;;;;;;;;;;20.20;70.20;;;;;;5055876;28;1395;-68
2022/06/10 03:34:58;;;;;;;;;;;20.20;70.20;;;;;;5036026;28;1606;-68
2022/06/10 03:37:24;;;;;;;;;;;20.20;70.20;;;;;;5051022;28;1417;-68
2022/06/10 03:39:50;;;;;;;;;;;20.20;70.20;;;;;;5035622;28;1440;-67
2022/06/10 03:42:16;;;;;;;;;;;20.20;70.20;;;;;;5066779;28;1315;-68
2022/06/10 03:44:42;;;;;;;;;;;20.20;70.20;;;;;;5073605;28;1111;-67
2022/06/10 03:47:08;;;;;;;;;;;20.20;70.20;;;;;;5073374;28;1898;-68
2022/06/10 03:49:57;;;;;;;;;;;20.20;70.20;;;;;;5073501;28;1069;-68
2022/06/10 03:52:23;;;;;;;;;;;20.10;70.20;;;;;;5051678;28;1401;-69
2022/06/10 03:54:49;;;;;;;;;;;20.10;70.20;;;;;;5055490;28;1440;-70
2022/06/10 03:57:17;;;;;;;;;;;20.20;70.30;;;;;;5073325;28;1369;-67
2022/06/10 03:59:42;;;;;;;;;;;20.10;70.20;;;;;;5066843;28;1294;-67
2022/06/10 04:02:08;;;;;;;;;;;20.10;70.10;;;;;;5075330;28;1293;-68
2022/06/10 04:04:33;;;;;;;;;;;20.10;70.20;;;;;;5093776;28;1332;-69
2022/06/10 04:06:58;;;;;;;;;;;20.10;70.20;;;;;;5075021;28;1890;-70
2022/06/10 04:09:24;;;;;;;;;;;20.20;70.20;;;;;;5080942;28;1157;-69
2022/06/10 04:11:49;;;;;;;;;;;20.10;70.20;;;;;;5072902;28;1209;-69
2022/06/10 04:14:15;;;;;;;;;;;20.10;70.10;;;;;;5073289;28;1264;-68
2022/06/10 04:16:40;;;;;;;;;;;20.10;70.20;;;;;;5055305;28;1521;-67
2022/06/10 04:19:06;;;;;;;;;;;20.10;70.20;;;;;;5074882;22;2147;-74
2022/06/10 04:21:31;;;;;;;;;;;20.20;70.20;;;;;;5074798;28;1118;-73
2022/06/10 04:23:57;;;;;;;;;;;20.10;70.20;;;;;;5093268;28;1270;-72
2022/06/10 04:26:22;;;;;;;;;;;20.10;70.20;;;;;;5092839;28;1902;-73
2022/06/10 04:28:48;;;;;;;;;;;20.10;70.20;;;;;;5093167;28;1310;-73
2022/06/10 04:31:13;;;;;;;;;;;20.20;70.20;;;;;;5074691;28;1266;-74
2022/06/10 04:33:39;;;;;;;;;;;20.10;70.20;;;;;;5058339;28;1377;-73
2022/06/10 04:36:04;;;;;;;;;;;20.10;70.20;;;;;;5056195;28;1687;-73
2022/06/10 04:38:30;;;;;;;;;;;20.10;70.20;;;;;;5072826;28;1283;-73
2022/06/10 04:40:55;;;;;;;;;;;20.10;70.20;;;;;;5054446;28;1154;-73
2022/06/10 04:43:22;;;;;;;;;;;20.10;70.20;;;;;;5034803;28;1176;-75
2022/06/10 04:45:49;;;;;;;;;;;20.10;70.20;;;;;;5041302;28;1894;-70
2022/06/10 04:48:14;;;;;;;;;;;20.10;70.20;;;;;;5070165;22;2058;-71
2022/06/10 04:50:40;;;;;;;;;;;20.10;70.20;;;;;;5037759;28;1626;-71
2022/06/10 04:53:05;;;;;;;;;;;20.10;70.20;;;;;;5045377;28;1567;-70
2022/06/10 04:55:31;;;;;;;;;;;20.20;70.20;;;;;;5047594;28;1505;-70
2022/06/10 04:57:56;;;;;;;;;;;20.10;70.20;;;;;;5041355;28;2140;-70
2022/06/10 05:00:24;;;;;;;;;;;20.10;70.20;;;;;;5050678;28;1539;-69
2022/06/10 05:02:50;;;;;;;;;;;20.10;70.20;;;;;;5050251;28;1662;-67
2022/06/10 05:05:15;;;;;;;;;;;20.10;70.20;;;;;;5067798;28;1562;-67
2022/06/10 05:07:41;;;;;;;;;;;20.10;70.20;;;;;;5051583;28;1914;-68
2022/06/10 05:10:06;;;;;;;;;;;20.10;70.20;;;;;;5050399;28;1542;-68
2022/06/10 05:12:32;;;;;;;;;;;20.10;70.20;;;;;;5051215;28;1659;-68
2022/06/10 05:14:57;;;;;;;;;;;20.10;70.20;;;;;;5052480;28;1728;-68
2022/06/10 05:17:23;;;;;;;;;;;20.10;70.20;;;;;;5067777;28;1580;-68
2022/06/10 05:19:48;;;;;;;;;;;20.10;70.20;;;;;;5050793;28;1313;-68
2022/06/10 05:22:14;;;;;;;;;;;20.20;70.30;;;;;;5067513;28;1382;-67
2022/06/10 05:24:39;;;;;;;;;;;20.10;70.20;;;;;;5052158;28;1380;-68
2022/06/10 05:27:05;;;;;;;;;;;20.10;70.20;;;;;;5067810;28;1918;-68
2022/06/10 05:29:31;;;;;;;;;;;20.10;70.20;;;;;;5051965;28;1353;-67
2022/06/10 05:31:56;;;;;;;;;;;20.10;70.20;;;;;;5052128;28;1682;-68
2022/06/10 05:37:06;;;;;;;;;;;20.10;70.20;;;;;;5052321;28;1645;-70
2022/06/10 05:39:31;;;;;;;;;;;20.10;70.20;;;;;;5050796;28;1712;-69
2022/06/10 05:42:05;;;;;;;;;;;20.10;70.20;;;;;;5051904;28;1348;-70
2022/06/10 05:44:31;;;;;;;;;;;20.10;70.20;;;;;;5067700;28;1630;-69
2022/06/10 05:46:57;;;;;;;;;;;20.10;70.20;;;;;;5051927;28;1968;-69
2022/06/10 05:49:22;;;;;;;;;;;20.10;70.30;;;;;;5052047;28;1569;-70
2022/06/10 05:51:48;;;;;;;;;;;20.10;70.20;;;;;;5051675;28;1962;-69
2022/06/10 05:54:13;;;;;;;;;;;20.10;70.20;;;;;;5047769;28;2235;-69
2022/06/10 05:56:40;;;;;;;;;;;20.10;70.20;;;;;;5054066;28;1465;-69
2022/06/10 05:59:06;;;;;;;;;;;20.10;70.20;;;;;;5043505;28;1310;-69
2022/06/10 06:01:31;;;;;;;;;;;20.10;70.20;;;;;;5048978;28;1399;-69
2022/06/10 06:03:57;;;;;;;;;;;20.10;70.20;;;;;;5054180;28;1404;-70
2022/06/10 06:06:22;;;;;;;;;;;20.10;70.20;;;;;;5055029;28;2106;-69
2022/06/10 06:08:48;;;;;;;;;;;20.10;70.20;;;;;;5054583;28;1414;-71
2022/06/10 06:11:14;;;;;;;;;;;20.10;70.30;;;;;;5053776;28;1412;-71
2022/06/10 06:13:40;;;;;;;;;;;20.10;70.20;;;;;;5044127;28;1605;-69
2022/06/10 06:16:05;;;;;;;;;;;20.10;70.20;;;;;;5047054;28;1380;-69
2022/06/10 06:18:31;;;;;;;;;;;20.10;70.20;;;;;;5048044;28;1377;-70
2022/06/10 06:20:56;;;;;;;;;;;20.10;70.20;;;;;;5060023;28;1687;-70
2022/06/10 06:23:22;;;;;;;;;;;20.10;70.20;;;;;;5053421;28;2281;-70
2022/06/10 06:25:47;;;;;;;;;;;20.10;70.20;;;;;;5044684;28;1960;-69
2022/06/10 06:28:12;;;;;;;;;;;20.10;70.20;;;;;;5046442;28;1324;-70
2022/06/10 06:30:38;;;;;;;;;;;20.10;70.20;;;;;;5054616;28;1225;-69
2022/06/10 06:33:05;;;;;;;;;;;20.10;70.20;;;;;;5043335;28;1282;-69
2022/06/10 06:35:30;;;;;;;;;;;20.10;70.20;;;;;;5047824;28;1848;-69
2022/06/10 06:37:56;;;;;;;;;;;20.10;70.20;;;;;;5053946;28;1847;-70
2022/06/10 06:40:21;;;;;;;;;;;20.10;70.20;;;;;;5053397;28;1653;-69
2022/06/10 06:42:47;;;;;;;;;;;20.10;71.00;;;;;;5054702;28;1700;-70
2022/06/10 06:45:13;;;;;;;;;;;20.10;70.20;;;;;;5053534;28;1744;-70
2022/06/10 06:47:40;;;;;;;;;;;20.10;70.20;;;;;;5052585;28;2249;-69
2022/06/10 06:50:06;;;;;;;;;;;20.10;70.20;;;;;;5053718;28;2335;-71
2022/06/10 06:52:31;;;;;;;;;;;20.10;70.20;;;;;;5052549;28;1395;-70
2022/06/10 06:54:57;;;;;;;;;;;20.10;70.20;;;;;;5035213;28;1367;-70
2022/06/10 06:57:22;;;;;;;;;;;20.10;71.00;;;;;;5053633;28;1443;-69
2022/06/10 06:59:48;;;;;;;;;;;20.10;70.20;;;;;;5053016;28;1411;-69
2022/06/10 07:02:13;;;;;;;;;;;20.10;70.20;;;;;;5053064;28;1232;-69
2022/06/10 07:04:39;;;;;;;;;;;20.10;70.20;;;;;;5050670;28;2339;-73
2022/06/10 07:07:04;;;;;;;;;;;20.10;70.30;;;;;;5049867;28;1898;-73
2022/06/10 07:09:30;;;;;;;;;;;20.10;70.20;;;;;;5048524;28;1569;-74
2022/06/10 07:11:55;;;;;;;;;;;20.10;70.20;;;;;;5054403;28;1646;-72
2022/06/10 07:14:22;;;;;;;;;;;20.10;70.20;;;;;;5052984;28;1641;-69
2022/06/10 07:16:51;;;;;;;;;;;20.10;70.20;;;;;;5047197;28;1257;-70
2022/06/10 07:19:17;;;;;;;;;;;20.10;70.20;;;;;;5033628;28;1378;-69
2022/06/10 07:21:42;;;;;;;;;;;20.10;70.20;;;;;;5068708;28;1632;-69
2022/06/10 07:24:08;;;;;;;;;;;20.10;70.20;;;;;;5069410;28;1672;-69
2022/06/10 07:26:33;;;;;;;;;;;20.10;70.20;;;;;;5048249;28;1902;-73
2022/06/10 07:28:59;;;;;;;;;;;20.10;70.20;;;;;;5063339;28;2174;-72
2022/06/10 07:31:24;;;;;;;;;;;20.10;70.20;;;;;;5052766;28;1333;-73
2022/06/10 07:33:49;;;;;;;;;;;20.10;70.20;;;;;;5036306;28;1519;-74
2022/06/10 07:36:15;;;;;;;;;;;20.10;70.20;;;;;;5052561;28;1272;-73
2022/06/10 07:38:40;;;;;;;;;;;20.10;70.20;;;;;;5047496;28;1310;-71
2022/06/10 07:43:51;;;;;;;;;;;20.10;70.20;;;;;;5053194;28;1272;-70
2022/06/10 07:46:17;;;;;;;;;;;20.10;70.20;;;;;;5056742;28;1963;-70
2022/06/10 07:48:42;;;;;;;;;;;20.10;70.20;;;;;;5044953;28;1321;-71
2022/06/10 07:51:08;;;;;;;;;;;20.10;70.20;;;;;;5061885;28;1174;-71
2022/06/10 07:53:34;;;;;;;;;;;20.10;70.20;;;;;;5068625;28;1270;-71
2022/06/10 07:56:00;;;;;;;;;;;20.10;70.20;;;;;;5052337;28;785;-71
2022/06/10 07:58:26;;;;;;;;;;;20.10;70.20;;;;;;5053123;28;1345;-72
2022/06/10 08:00:51;;;;;;;;;;;20.10;70.20;;;;;;5051942;28;1118;-72
2022/06/10 08:03:17;;;;;;;;;;;20.10;70.20;;;;;;5051913;28;1190;-73
2022/06/10 08:05:42;;;;;;;;;;;20.10;70.20;;;;;;5051873;28;1060;-73
2022/06/10 08:08:08;;;;;;;;;;;20.10;70.20;;;;;;5052219;28;1969;-72
2022/06/10 08:10:34;;;;;;;;;;;20.10;70.20;;;;;;5052898;28;1257;-73
2022/06/10 08:13:00;;;;;;;;;;;20.10;70.20;;;;;;5052706;28;1369;-73
2022/06/10 08:15:25;;;;;;;;;;;20.10;70.20;;;;;;5051241;28;1074;-72
2022/06/10 08:17:51;;;;;;;;;;;20.10;70.20;;;;;;5052556;28;1216;-73
2022/06/10 08:20:24;;;;;;;;;;;20.10;70.20;;;;;;5039798;28;1276;-73
2022/06/10 08:22:50;;;;;;;;;;;20.10;70.20;;;;;;5051831;28;1115;-73
2022/06/10 08:25:15;;;;;;;;;;;20.10;70.20;;;;;;5052826;28;1178;-73
2022/06/10 08:27:41;;;;;;;;;;;20.10;70.20;;;;;;5068175;28;1971;-73
2022/06/10 08:30:09;;;;;;;;;;;20.10;70.20;;;;;;5051721;28;1309;-72
2022/06/10 08:32:34;;;;;;;;;;;20.10;70.50;;;;;;5051964;28;1149;-72
2022/06/10 08:34:59;;;;;;;;;;;20.20;71.50;;;;;;5051414;28;1583;-71
2022/06/10 08:37:25;;;;;;;;;;;20.20;70.70;;;;;;5034888;28;1553;-72
2022/06/10 08:39:50;;;;;;;;;;;20.20;70.70;;;;;;5052464;28;1636;-72
2022/06/10 08:42:35;;;;;;;;;;;20.20;70.70;;;;;;5052919;28;1297;-71
2022/06/10 08:45:27;;;;;;;;;;;20.20;70.60;;;;;;5052625;28;1294;-70
2022/06/10 08:47:57;;;;;;;;;;;20.20;70.60;;;;;;5043865;28;1914;-71
2022/06/10 08:50:41;;;;;;;;;;;20.20;70.60;;;;;;5052100;28;1282;-70
2022/06/10 08:53:06;;;;;;;;;;;20.20;70.60;;;;;;5052733;28;1336;-72
2022/06/10 08:55:32;;;;;;;;;;;20.20;70.60;;;;;;5052480;28;1458;-71
2022/06/10 08:57:58;;;;;;;;;;;20.20;70.60;;;;;;5051106;28;1329;-70
2022/06/10 09:00:28;;;;;;;;;;;20.20;70.60;;;;;;5047539;28;1400;-72
2022/06/10 09:03:05;;;;;;;;;;;20.20;70.60;;;;;;5068152;28;1181;-71
2022/06/10 09:05:34;;;;;;;;;;;20.20;70.60;;;;;;5038892;28;1118;-72
2022/06/10 09:08:01;;;;;;;;;;;20.20;70.60;;;;;;5050733;28;1910;-72
2022/06/10 09:10:32;;;;;;;;;;;20.20;70.60;;;;;;5051517;28;1368;-71
2022/06/10 09:13:17;;;;;;;;;;;20.20;70.60;;;;;;5051058;28;1303;-73
2022/06/10 09:15:46;;;;;;;;;;;20.20;70.60;;;;;;5052436;28;1386;-73
2022/06/10 09:18:17;;;;;;;;;;;20.20;70.50;;;;;;5050946;28;1414;-72
2022/06/10 09:20:49;;;;;;;;;;;20.20;70.60;;;;;;5050953;28;1067;-74
2022/06/10 09:23:15;;;;;;;;;;;20.20;70.50;;;;;;5051402;28;1433;-72
2022/06/10 09:25:42;;;;;;;;;;;20.20;70.50;;;;;;5051234;28;1182;-71
2022/06/10 09:28:07;;;;;;;;;;;20.10;70.50;;;;;;5054540;28;1897;-71
2022/06/10 09:30:39;;;;;;;;;;;20.20;70.50;;;;;;5059426;28;1067;-70
2022/06/10 09:33:23;;;;;;;;;;;20.10;70.40;;;;;;5055039;28;1126;-70
2022/06/10 09:36:03;;;;;;;;;;;20.20;70.50;;;;;;5052220;28;1627;-71
2022/06/10 09:38:33;;;;;;;;;;;20.20;70.50;;;;;;5055768;28;1380;-71
2022/06/10 09:41:17;;;;;;;;;;;20.10;70.50;;;;;;5054192;28;1331;-69
2022/06/10 09:44:01;;;;;;;;;;;20.20;70.50;;;;;;5055688;28;1110;-73
2022/06/10 09:46:34;;;;;;;;;;;20.10;70.40;;;;;;5044458;28;1959;-74
2022/06/10 09:49:05;;;;;;;;;;;20.10;70.40;;;;;;5046506;28;1657;-71
2022/06/10 09:51:40;;;;;;;;;;;20.20;70.50;;;;;;5048914;28;2193;-70
2022/06/10 09:54:08;;;;;;;;;;;20.20;70.50;;;;;;5052774;28;2114;-70
2022/06/10 09:56:36;;;;;;;;;;;20.10;70.40;;;;;;5052122;28;1086;-70
2022/06/10 09:59:14;;;;;;;;;;;20.10;70.40;;;;;;5043386;28;1282;-70
2022/06/10 10:02:00;;;;;;;;;;;20.20;70.40;;;;;;5039267;28;1067;-70
2022/06/10 10:04:35;;;;;;;;;;;20.10;70.40;;;;;;5053260;28;2070;-70
2022/06/10 10:07:03;;;;;;;;;;;20.10;70.40;;;;;;5041096;28;1906;-71
2022/06/10 10:09:31;;;;;;;;;;;20.10;70.40;;;;;;5044944;28;1318;-71
2022/06/10 10:12:05;;;;;;;;;;;20.20;70.40;;;;;;5053243;28;1359;-71
2022/06/10 10:14:33;;;;;;;;;;;20.10;70.40;;;;;;5053634;28;1216;-70
2022/06/10 10:17:21;;;;;;;;;;;20.20;70.40;;;;;;5049587;28;1400;-71
2022/06/10 10:20:09;;;;;;;;;;;20.10;70.40;;;;;;5040072;28;1374;-71
2022/06/10 10:22:44;;;;;;;;;;;20.10;70.30;;;;;;5051833;28;1198;-72
2022/06/10 10:25:14;;;;;;;;;;;20.20;70.40;;;;;;5053639;28;1134;-71
2022/06/10 10:27:40;;;;;;;;;;;20.10;70.30;;;;;;5053617;28;1874;-71
2022/06/10 10:30:13;;;;;;;;;;;20.20;70.40;;;;;;5053246;28;1354;-71
2022/06/10 10:32:39;;;;;;;;;;;20.10;70.30;;;;;;5053499;28;1262;-71
2022/06/10 10:35:11;;;;;;;;;;;20.20;70.40;;;;;;5036145;28;2152;-71
2022/06/10 10:37:37;;;;;;;;;;;20.20;70.40;;;;;;5051594;28;1916;-71
2022/06/10 10:40:07;;;;;;;;;;;20.20;70.40;;;;;;5049214;28;1807;-71
2022/06/10 10:42:39;;;;;;;;;;;20.20;70.40;;;;;;5056266;28;1270;-70
2022/06/10 10:45:08;;;;;;;;;;;20.20;70.40;;;;;;5045662;28;1789;-71
2022/06/10 10:47:35;;;;;;;;;;;20.20;70.30;;;;;;5064604;28;1879;-70
2022/06/10 10:50:06;;;;;;;;;;;20.20;70.30;;;;;;5057740;28;1271;-70
2022/06/10 10:52:34;;;;;;;;;;;20.10;70.30;;;;;;5042111;28;1310;-70
2022/06/10 10:55:00;;;;;;;;;;;20.20;70.30;;;;;;5054174;28;1944;-70
2022/06/10 10:57:36;;;;;;;;;;;20.10;71.00;;;;;;5057651;28;1669;-67
2022/06/10 11:00:10;;;;;;;;;;;20.20;70.30;;;;;;5052439;28;1302;-67
2022/06/10 11:02:36;;;;;;;;;;;20.20;70.30;;;;;;5053970;28;1255;-67
2022/06/10 11:05:31;;;;;;;;;;;20.20;70.30;;;;;;5054011;28;1160;-67
2022/06/10 11:08:16;;;;;;;;;;;20.20;70.30;;;;;;5075740;22;3588;-67
2022/06/10 11:10:51;;;;;;;;;;;20.20;70.30;;;;;;5049889;28;933;-68
2022/06/10 11:13:45;;;;;;;;;;;20.10;70.20;;;;;;5053935;28;1262;-67
2022/06/10 11:16:23;;;;;;;;;;;20.20;70.30;;;;;;5028373;28;1185;-67
2022/06/10 11:18:49;;;;;;;;;;;20.20;70.30;;;;;;5025206;28;1267;-67
2022/06/10 11:21:15;;;;;;;;;;;20.20;70.30;;;;;;5017756;28;2234;-67
2022/06/10 11:23:54;;;;;;;;;;;20.20;70.30;;;;;;5005435;28;1217;-67
2022/06/10 11:26:21;;;;;;;;;;;20.20;70.30;;;;;;5033457;28;1957;-67
2022/06/10 11:28:47;;;;;;;;;;;20.20;70.30;;;;;;5016132;28;1285;-67
2022/06/10 11:31:31;;;;;;;;;;;20.20;70.30;;;;;;5033071;28;1284;-68
2022/06/10 11:33:57;;;;;;;;;;;20.20;70.30;;;;;;5032828;28;1368;-68
2022/06/10 11:36:35;;;;;;;;;;;20.20;70.30;;;;;;5032556;28;1720;-68
2022/06/10 11:39:20;;;;;;;;;;;20.20;70.30;;;;;;5027994;28;1279;-68
2022/06/10 11:42:08;;;;;;;;;;;20.20;70.30;;;;;;5025758;28;1195;-68
2022/06/10 11:44:44;;;;;;;;;;;20.10;70.20;;;;;;5003083;28;1213;-68
2022/06/10 11:47:16;;;;;;;;;;;20.20;70.30;;;;;;5015663;28;1903;-68
2022/06/10 11:50:19;;;;;;;;;;;20.20;70.30;;;;;;5032180;28;1155;-68
2022/06/10 11:52:49;;;;;;;;;;;20.20;70.30;;;;;;4972393;28;1360;-68
2022/06/10 11:55:16;;;;;;;;;;;20.10;70.20;;;;;;5023253;28;1100;-68
2022/06/10 12:00:46;;;;;;;;;;;20.20;70.30;;;;;;5018057;28;1309;-68
2022/06/10 12:03:30;;;;;;;;;;;20.20;70.30;;;;;;5033224;28;1306;-68
2022/06/10 12:05:58;;;;;;;;;;;20.10;70.20;;;;;;5033136;28;1970;-68
2022/06/10 12:08:43;;;;;;;;;;;20.10;70.20;;;;;;5014314;28;1245;-67
2022/06/10 12:11:11;;;;;;;;;;;20.20;70.30;;;;;;5032902;28;1334;-67
2022/06/10 12:13:37;;;;;;;;;;;20.20;70.30;;;;;;5033105;28;1368;-67
2022/06/10 12:16:03;;;;;;;;;;;20.20;70.20;;;;;;5015263;28;1284;-68
2022/06/10 12:18:29;;;;;;;;;;;20.20;70.30;;;;;;5015348;28;1395;-68
2022/06/10 12:20:57;;;;;;;;;;;20.20;70.30;;;;;;5014883;28;1267;-68
2022/06/10 12:23:30;;;;;;;;;;;20.20;70.30;;;;;;5015685;28;1364;-68
2022/06/10 12:26:14;;;;;;;;;;;20.10;70.20;;;;;;5028960;28;1961;-68
2022/06/10 12:28:41;;;;;;;;;;;20.20;70.30;;;;;;5043322;28;1274;-68
2022/06/10 12:31:25;;;;;;;;;;;20.20;70.30;;;;;;5014873;28;1100;-68
2022/06/10 12:33:59;;;;;;;;;;;20.20;70.30;;;;;;5032638;28;1439;-68
2022/06/10 12:36:27;;;;;;;;;;;20.20;70.30;;;;;;5015047;28;1367;-68
2022/06/10 12:38:53;;;;;;;;;;;20.20;70.20;;;;;;5015119;28;1272;-68
2022/06/10 12:41:19;;;;;;;;;;;20.20;70.30;;;;;;5032504;28;1150;-68
2022/06/10 12:43:49;;;;;;;;;;;20.10;70.20;;;;;;5032748;28;1262;-67
2022/06/10 12:46:27;;;;;;;;;;;20.20;70.20;;;;;;5014978;28;1898;-68
2022/06/10 12:48:52;;;;;;;;;;;20.20;70.30;;;;;;5032639;28;1385;-68
2022/06/10 12:51:28;;;;;;;;;;;20.20;70.30;;;;;;5032447;28;1340;-68
2022/06/10 12:54:13;;;;;;;;;;;20.20;70.20;;;;;;5032835;28;1327;-68
2022/06/10 12:56:38;;;;;;;;;;;20.10;70.20;;;;;;5031428;28;1844;-68
2022/06/10 12:59:04;;;;;;;;;;;20.10;70.20;;;;;;5030145;28;2258;-68
2022/06/10 13:01:29;;;;;;;;;;;20.20;70.20;;;;;;5033394;28;1802;-68
2022/06/10 13:03:58;;;;;;;;;;;20.20;70.30;;;;;;5033590;28;1273;-67
2022/06/10 13:06:25;;;;;;;;;;;20.10;70.90;;;;;;5012377;28;2262;-68
2022/06/10 13:08:51;;;;;;;;;;;20.20;70.30;;;;;;5024427;28;1113;-68
2022/06/10 13:11:36;;;;;;;;;;;20.10;70.20;;;;;;5015327;28;1252;-68
2022/06/10 13:14:34;;;;;;;;;;;20.20;70.30;;;;;;5016675;28;1330;-68
2022/06/10 13:16:59;;;;;;;;;;;20.20;70.30;;;;;;5004456;28;1422;-68
2022/06/10 13:19:38;;;;;;;;;;;20.20;70.30;;;;;;5029213;28;1132;-68
2022/06/10 13:22:21;;;;;;;;;;;20.20;70.20;;;;;;5035962;28;1431;-68
2022/06/10 13:24:53;;;;;;;;;;;20.20;70.20;;;;;;5040029;28;1192;-67
2022/06/10 13:27:29;;;;;;;;;;;20.20;70.30;;;;;;5044211;28;1973;-68
2022/06/10 13:29:55;;;;;;;;;;;20.20;70.30;;;;;;5035572;28;1195;-68
2022/06/10 13:32:20;;;;;;;;;;;20.20;70.20;;;;;;5036560;28;1323;-68
2022/06/10 13:34:53;;;;;;;;;;;20.20;70.20;;;;;;5018323;28;1390;-67
2022/06/10 13:37:20;;;;;;;;;;;20.20;70.20;;;;;;5001433;28;2077;-68
2022/06/10 13:39:46;;;;;;;;;;;20.20;70.30;;;;;;5010159;28;1150;-68
2022/06/10 13:42:19;;;;;;;;;;;20.20;70.20;;;;;;5034104;28;1304;-68
2022/06/10 13:44:45;;;;;;;;;;;20.20;70.20;;;;;;5018237;28;1088;-68
2022/06/10 13:47:24;;;;;;;;;;;20.20;70.20;;;;;;5018008;28;1910;-67
2022/06/10 13:50:18;;;;;;;;;;;20.20;70.20;;;;;;5018327;28;1340;-68
2022/06/10 13:52:48;;;;;;;;;;;20.20;70.30;;;;;;5035674;28;1234;-68
2022/06/10 13:55:26;;;;;;;;;;;20.10;70.20;;;;;;5017964;28;1380;-68
2022/06/10 13:58:09;;;;;;;;;;;20.20;70.20;;;;;;5035280;28;1890;-67
2022/06/10 14:00:55;;;;;;;;;;;20.20;70.20;;;;;;5028940;28;1120;-67
2022/06/10 14:03:24;;;;;;;;;;;20.20;70.30;;;;;;5029929;28;1305;-68
2022/06/10 14:05:56;;;;;;;;;;;20.20;70.20;;;;;;5035623;28;1040;-67
2022/06/10 14:08:21;;;;;;;;;;;20.20;70.20;;;;;;5034317;28;1906;-67
2022/06/10 14:10:50;;;;;;;;;;;20.20;70.20;;;;;;5035208;28;1116;-67
2022/06/10 14:13:19;;;;;;;;;;;20.20;70.20;;;;;;5016789;28;1341;-68
2022/06/10 14:15:53;;;;;;;;;;;20.20;70.20;;;;;;5035408;28;1060;-67
2022/06/10 14:18:21;;;;;;;;;;;20.20;70.20;;;;;;5031279;28;1229;-67
2022/06/10 14:20:46;;;;;;;;;;;20.20;70.20;;;;;;5017627;28;1045;-67
2022/06/10 14:23:22;;;;;;;;;;;20.20;70.20;;;;;;5017514;28;1022;-67
2022/06/10 14:26:06;;;;;;;;;;;20.20;70.20;;;;;;5048133;28;1151;-67
2022/06/10 14:28:32;;;;;;;;;;;20.20;70.20;;;;;;5035089;28;1285;-67
2022/06/10 14:30:59;;;;;;;;;;;20.20;70.20;;;;;;5050060;28;1083;-67
2022/06/10 14:33:27;;;;;;;;;;;20.20;70.20;;;;;;5033777;28;1365;-67
2022/06/10 14:36:05;;;;;;;;;;;20.20;70.20;;;;;;5033589;28;1580;-67
2022/06/10 14:38:30;;;;;;;;;;;20.20;70.20;;;;;;5017118;28;1289;-68
2022/06/10 14:40:55;;;;;;;;;;;20.20;70.20;;;;;;5034810;28;1357;-67
2022/06/10 14:43:22;;;;;;;;;;;20.20;70.20;;;;;;5035091;28;1241;-67
2022/06/10 14:45:47;;;;;;;;;;;20.10;70.20;;;;;;5012594;28;1936;-69
2022/06/10 14:48:13;;;;;;;;;;;20.20;70.20;;;;;;5044683;28;1894;-68
2022/06/10 14:50:39;;;;;;;;;;;20.20;70.20;;;;;;5023051;28;1183;-68
2022/06/10 14:53:18;;;;;;;;;;;20.20;70.20;;;;;;5007375;28;1297;-68
2022/06/10 14:55:47;;;;;;;;;;;20.20;70.20;;;;;;5035199;28;1298;-68
2022/06/10 14:58:14;;;;;;;;;;;20.10;70.20;;;;;;5016975;28;1539;-68